Time;durP1;ratioP1;P1;durP2;ratioP2;P2;SDS_P1;SDS_P2;PMS_P1;PMS_P2;Temp;Humidity;BMP_temperature;BMP_pressure;BME280_temperature;BME280_humidity;BME280_pressure;Samples;Min_cycle;Max_cycle;Signal;HPM_P1;HPM_P2
2021/07/30 00:01:07;;;;;;;6.60;5.03;;;22.80;93.10;;;;;;4993064;28;20090;-73
2021/07/30 00:03:33;;;;;;;4.72;4.30;;;22.80;93.00;;;;;;4992953;28;20036;-73
2021/07/30 00:05:58;;;;;;;5.88;4.45;;;22.80;93.00;;;;;;4992943;28;20424;-73
2021/07/30 00:08:24;;;;;;;7.13;4.60;;;22.80;92.90;;;;;;4992869;28;20033;-73
2021/07/30 00:10:53;;;;;;;5.70;4.65;;;22.80;92.90;;;;;;4992803;28;20084;-74
2021/07/30 00:13:19;;;;;;;5.82;4.53;;;22.80;93.00;;;;;;4992902;28;20028;-74
2021/07/30 00:15:45;;;;;;;8.20;4.32;;;22.70;92.80;;;;;;4992910;28;20349;-74
2021/07/30 00:18:10;;;;;;;7.70;4.30;;;22.70;92.60;;;;;;4992852;28;20073;-74
2021/07/30 00:20:36;;;;;;;6.10;4.60;;;22.70;92.60;;;;;;4992742;28;20117;-73
2021/07/30 00:23:02;;;;;;;5.72;4.40;;;22.70;92.50;;;;;;4992837;28;20045;-73
2021/07/30 00:25:28;;;;;;;6.57;4.70;;;22.70;92.50;;;;;;4992760;28;20022;-73
2021/07/30 00:27:53;;;;;;;9.32;4.78;;;22.60;92.70;;;;;;4992657;28;20377;-74
2021/07/30 00:30:19;;;;;;;8.68;4.82;;;22.60;92.80;;;;;;4975157;28;20049;-73
2021/07/30 00:32:45;;;;;;;5.95;5.00;;;22.60;92.90;;;;;;4992890;28;20034;-73
2021/07/30 00:35:10;;;;;;;8.88;5.82;;;22.50;92.90;;;;;;4992851;28;20026;-73
2021/07/30 00:37:40;;;;;;;6.50;5.40;;;22.50;93.00;;;;;;4992714;28;20547;-73
2021/07/30 00:40:07;;;;;;;8.13;4.85;;;22.50;93.00;;;;;;4992598;28;20021;-73
2021/07/30 00:42:33;;;;;;;5.95;4.53;;;22.40;93.10;;;;;;4992643;28;20026;-74
2021/07/30 00:44:59;;;;;;;6.03;4.50;;;22.40;93.10;;;;;;4992479;28;20469;-74
2021/07/30 00:47:29;;;;;;;6.70;4.50;;;22.40;93.10;;;;;;4992409;28;20065;-73
2021/07/30 00:49:56;;;;;;;6.38;4.85;;;22.40;93.00;;;;;;4992371;28;20030;-74
2021/07/30 00:52:24;;;;;;;11.57;5.50;;;22.40;93.00;;;;;;4992472;28;20485;-73
2021/07/30 00:54:50;;;;;;;6.20;4.60;;;22.40;93.00;;;;;;4992265;28;20533;-74
2021/07/30 00:57:17;;;;;;;6.63;4.85;;;22.40;92.80;;;;;;4992321;28;20019;-73
2021/07/30 00:59:43;;;;;;;4.97;4.43;;;22.30;92.60;;;;;;4992389;28;20022;-73
2021/07/30 01:02:09;;;;;;;6.18;4.47;;;22.30;92.40;;;;;;4992297;28;20030;-74
2021/07/30 01:04:35;;;;;;;4.88;4.43;;;22.20;92.30;;;;;;4992526;28;20037;-73
2021/07/30 01:07:00;;;;;;;6.70;4.97;;;22.20;92.30;;;;;;4992519;28;20026;-73
2021/07/30 01:09:26;;;;;;;6.25;3.97;;;22.20;92.20;;;;;;4992673;28;20061;-73
2021/07/30 01:11:52;;;;;;;6.68;4.47;;;22.20;92.10;;;;;;4992792;28;20062;-73
2021/07/30 01:14:17;;;;;;;5.72;4.63;;;22.10;92.30;;;;;;4992711;28;20027;-74
2021/07/30 01:16:43;;;;;;;4.90;4.30;;;22.00;92.40;;;;;;4992600;28;20432;-74
2021/07/30 01:19:21;;;;;;;5.47;4.35;;;22.00;92.50;;;;;;4992431;28;20054;-75
2021/07/30 01:21:48;;;;;;;4.78;3.97;;;22.00;92.80;;;;;;4992513;28;20389;-73
2021/07/30 01:24:14;;;;;;;5.90;4.78;;;21.90;92.60;;;;;;4992494;28;20381;-73
2021/07/30 01:26:40;;;;;;;5.25;4.53;;;21.90;92.70;;;;;;4992194;28;20114;-73
2021/07/30 01:29:06;;;;;;;5.25;4.63;;;21.90;92.70;;;;;;4992140;28;20077;-73
2021/07/30 01:31:32;;;;;;;4.68;4.10;;;21.90;92.70;;;;;;4992141;28;20081;-73
2021/07/30 01:33:57;;;;;;;5.03;4.50;;;21.90;92.70;;;;;;4992388;28;20026;-74
2021/07/30 01:36:23;;;;;;;7.53;4.63;;;21.80;92.60;;;;;;4992415;28;20031;-73
2021/07/30 01:38:49;;;;;;;8.13;4.72;;;21.80;92.60;;;;;;4992545;28;20033;-73
2021/07/30 01:41:15;;;;;;;5.18;4.68;;;21.80;92.60;;;;;;4995209;28;20026;-73
2021/07/30 01:43:43;;;;;;;7.43;4.60;;;21.80;92.60;;;;;;4995803;28;20416;-73
2021/07/30 01:46:09;;;;;;;5.45;4.95;;;21.80;92.60;;;;;;4995824;28;20488;-73
2021/07/30 01:48:34;;;;;;;6.47;5.43;;;21.70;92.70;;;;;;4995763;28;20031;-73
2021/07/30 01:51:00;;;;;;;5.75;5.20;;;21.70;92.50;;;;;;4995943;28;20026;-73
2021/07/30 01:53:26;;;;;;;12.20;5.45;;;21.70;92.50;;;;;;4995707;28;20514;-73
2021/07/30 01:55:52;;;;;;;8.32;5.82;;;21.60;92.70;;;;;;4995710;28;20101;-73
2021/07/30 01:58:18;;;;;;;5.63;4.95;;;21.60;92.60;;;;;;4995475;28;20377;-73
2021/07/30 02:00:44;;;;;;;7.10;5.57;;;21.50;92.60;;;;;;4995468;28;20065;-74
2021/07/30 02:03:09;;;;;;;7.32;5.82;;;21.50;92.70;;;;;;4995556;28;20081;-74
2021/07/30 02:05:39;;;;;;;8.93;5.60;;;21.50;92.80;;;;;;4995461;28;20101;-74
2021/07/30 02:08:08;;;;;;;9.05;5.53;;;21.50;92.80;;;;;;4995131;28;20072;-72
2021/07/30 02:10:34;;;;;;;6.72;5.60;;;21.40;92.90;;;;;;4995035;28;20026;-74
2021/07/30 02:15:44;;;;;;;6.18;5.57;;;21.40;93.00;;;;;;4995097;28;20116;-74
2021/07/30 02:18:10;;;;;;;13.23;6.00;;;21.40;92.90;;;;;;4994743;28;20026;-74
2021/07/30 02:20:37;;;;;;;7.57;5.68;;;21.40;92.90;;;;;;4994904;28;20058;-73
2021/07/30 02:23:02;;;;;;;8.27;5.70;;;21.40;92.90;;;;;;4994969;28;20432;-74
2021/07/30 02:25:28;;;;;;;8.00;6.07;;;21.40;92.90;;;;;;4995017;28;20034;-73
2021/07/30 02:27:54;;;;;;;7.95;5.45;;;21.40;92.80;;;;;;4994921;28;20083;-74
2021/07/30 02:30:19;;;;;;;7.85;5.70;;;21.50;92.80;;;;;;4994907;28;20023;-74
2021/07/30 02:32:45;;;;;;;7.43;5.30;;;21.50;92.70;;;;;;4994991;28;20038;-74
2021/07/30 02:35:11;;;;;;;6.03;5.43;;;21.50;92.60;;;;;;4995206;28;20391;-74
2021/07/30 02:37:36;;;;;;;7.25;5.82;;;21.50;92.50;;;;;;4977443;28;20096;-74
2021/07/30 02:40:03;;;;;;;6.38;5.10;;;21.50;92.50;;;;;;4994893;28;20470;-74
2021/07/30 02:42:28;;;;;;;9.07;5.80;;;21.60;92.40;;;;;;4994536;28;20030;-74
2021/07/30 02:44:54;;;;;;;10.57;5.78;;;21.60;92.20;;;;;;4994792;28;20022;-74
2021/07/30 02:47:20;;;;;;;7.72;6.20;;;21.60;92.20;;;;;;4994907;28;20381;-74
2021/07/30 02:49:45;;;;;;;7.13;5.88;;;21.70;92.00;;;;;;4994711;28;20018;-73
2021/07/30 02:52:11;;;;;;;9.15;5.88;;;21.70;91.90;;;;;;4977219;28;20033;-74
2021/07/30 02:54:37;;;;;;;12.40;6.38;;;21.70;91.90;;;;;;4994487;28;20112;-74
2021/07/30 02:57:03;;;;;;;7.13;5.88;;;21.80;91.90;;;;;;4994518;28;20077;-74
2021/07/30 02:59:28;;;;;;;9.32;5.75;;;21.80;91.70;;;;;;4994373;28;20088;-74
2021/07/30 03:01:54;;;;;;;5.93;5.43;;;21.80;91.50;;;;;;4994393;28;20027;-74
2021/07/30 03:04:20;;;;;;;8.55;5.28;;;21.90;91.50;;;;;;4994417;28;20029;-74
2021/07/30 03:06:45;;;;;;;7.28;5.40;;;22.00;91.70;;;;;;4994279;28;20019;-74
2021/07/30 03:09:11;;;;;;;6.15;5.38;;;22.10;91.60;;;;;;4994263;28;20058;-74
2021/07/30 03:11:37;;;;;;;8.30;5.28;;;22.20;91.10;;;;;;4994078;28;20038;-74
2021/07/30 03:14:02;;;;;;;7.38;5.45;;;22.30;90.70;;;;;;4994207;28;20030;-74
2021/07/30 03:16:28;;;;;;;10.32;5.68;;;22.30;90.40;;;;;;4994216;28;20125;-74
2021/07/30 03:18:54;;;;;;;7.15;5.20;;;22.40;90.40;;;;;;4993924;28;20077;-74
2021/07/30 03:21:19;;;;;;;8.50;5.47;;;22.40;90.20;;;;;;4993649;28;20085;-73
2021/07/30 03:23:45;;;;;;;9.30;5.38;;;22.40;90.10;;;;;;4993787;28;20023;-74
2021/07/30 03:26:11;;;;;;;7.75;5.63;;;22.50;89.90;;;;;;4993858;28;20031;-74
2021/07/30 03:28:37;;;;;;;12.07;6.18;;;22.50;89.60;;;;;;4993720;28;20477;-73
2021/07/30 03:31:02;;;;;;;9.45;5.72;;;22.50;89.50;;;;;;4993379;28;20050;-74
2021/07/30 03:33:28;;;;;;;7.70;5.70;;;22.50;89.40;;;;;;4993715;28;20033;-74
2021/07/30 03:35:54;;;;;;;8.70;6.10;;;22.50;89.30;;;;;;4993661;28;20508;-74
2021/07/30 03:38:20;;;;;;;17.85;6.45;;;22.60;89.20;;;;;;4993556;28;20106;-74
2021/07/30 03:40:45;;;;;;;9.65;5.70;;;22.60;89.10;;;;;;4993390;28;20384;-74
2021/07/30 03:43:12;;;;;;;8.48;5.90;;;22.60;89.00;;;;;;4993305;28;20027;-73
2021/07/30 03:45:38;;;;;;;6.85;6.15;;;22.70;88.80;;;;;;4993337;28;20072;-75
2021/07/30 03:48:04;;;;;;;11.18;6.22;;;22.70;88.50;;;;;;4993142;28;20461;-74
2021/07/30 03:50:29;;;;;;;8.07;5.82;;;22.70;88.40;;;;;;4993113;28;20085;-74
2021/07/30 03:53:00;;;;;;;9.38;6.10;;;22.70;88.30;;;;;;4993079;28;20373;-74
2021/07/30 03:55:26;;;;;;;16.95;7.47;;;22.80;88.00;;;;;;4975410;28;20436;-74
2021/07/30 03:57:51;;;;;;;7.93;6.13;;;22.80;88.00;;;;;;4992876;28;20026;-74
2021/07/30 04:00:17;;;;;;;13.90;7.10;;;22.90;87.80;;;;;;4993000;28;20084;-76
2021/07/30 04:02:43;;;;;;;11.70;7.38;;;22.90;87.60;;;;;;4992874;28;20065;-75
2021/07/30 04:05:09;;;;;;;11.80;7.75;;;22.90;87.40;;;;;;4993042;28;20030;-75
2021/07/30 04:07:34;;;;;;;12.23;7.85;;;22.90;87.30;;;;;;4993171;28;20026;-75
2021/07/30 04:10:00;;;;;;;13.40;7.13;;;23.00;87.30;;;;;;4992799;28;20037;-74
2021/07/30 04:12:26;;;;;;;13.23;8.38;;;23.00;87.30;;;;;;4992137;28;20482;-75
2021/07/30 04:14:52;;;;;;;16.75;9.15;;;23.00;87.30;;;;;;4991950;28;20029;-74
2021/07/30 04:17:17;;;;;;;14.57;9.02;;;23.00;87.40;;;;;;4991971;28;20033;-74
2021/07/30 04:19:43;;;;;;;11.48;7.50;;;23.00;87.20;;;;;;4992153;28;20027;-75
2021/07/30 04:22:13;;;;;;;9.90;7.43;;;23.00;87.20;;;;;;4992106;28;20037;-75
2021/07/30 04:24:39;;;;;;;13.07;8.15;;;23.10;87.80;;;;;;4992476;28;20022;-76
2021/07/30 04:27:06;;;;;;;13.38;7.22;;;23.10;87.20;;;;;;4992442;28;20030;-76
2021/07/30 04:29:35;;;;;;;10.02;7.47;;;23.20;87.20;;;;;;4992429;28;20030;-76
2021/07/30 04:32:01;;;;;;;10.50;6.85;;;23.40;87.30;;;;;;4992122;28;20118;-75
2021/07/30 04:34:28;;;;;;;14.02;7.32;;;23.70;86.90;;;;;;4992245;28;20023;-75
2021/07/30 04:36:54;;;;;;;17.15;6.72;;;24.30;87.80;;;;;;4992538;28;20031;-74
2021/07/30 04:39:20;;;;;;;9.73;7.28;;;25.10;85.30;;;;;;4992536;28;20034;-75
2021/07/30 04:41:45;;;;;;;8.48;6.47;;;25.80;82.70;;;;;;4991940;28;20030;-75
2021/07/30 04:44:11;;;;;;;8.90;6.75;;;26.50;81.10;;;;;;4992065;28;20030;-75
2021/07/30 04:46:37;;;;;;;9.45;7.15;;;27.30;78.80;;;;;;4992380;28;20069;-75
2021/07/30 04:49:02;;;;;;;9.23;6.43;;;28.20;77.00;;;;;;4991922;28;20054;-76
2021/07/30 04:51:28;;;;;;;11.77;7.50;;;29.50;75.00;;;;;;4992078;28;20381;-77
2021/07/30 04:53:54;;;;;;;12.25;7.22;;;31.00;71.90;;;;;;4992006;28;20034;-75
2021/07/30 04:56:20;;;;;;;17.75;8.25;;;32.40;68.50;;;;;;4992274;28;20023;-77
2021/07/30 04:58:46;;;;;;;11.55;7.43;;;33.80;65.50;;;;;;4974916;28;20464;-77
2021/07/30 05:01:13;;;;;;;12.57;6.85;;;35.10;62.50;;;;;;4974749;28;20027;-76
2021/07/30 05:03:38;;;;;;;8.25;7.07;;;36.20;59.70;;;;;;4991655;28;20496;-77
2021/07/30 05:06:18;;;;;;;12.07;7.32;;;37.30;57.40;;;;;;4991382;28;20035;-77
2021/07/30 05:08:44;;;;;;;12.68;7.05;;;38.30;54.40;;;;;;4991917;28;20023;-77
2021/07/30 05:11:11;;;;;;;11.98;7.05;;;39.20;53.20;;;;;;4991737;28;20029;-78
2021/07/30 05:13:41;;;;;;;8.82;7.30;;;39.90;51.60;;;;;;4991651;28;20489;-77
2021/07/30 05:16:13;;;;;;;11.35;6.85;;;40.60;50.00;;;;;;4994847;28;20023;-77
2021/07/30 05:18:39;;;;;;;22.08;8.02;;;41.40;49.00;;;;;;4995557;28;20496;-77
2021/07/30 05:21:06;;;;;;;12.52;8.18;;;42.10;48.00;;;;;;4995810;28;20030;-75
2021/07/30 05:23:32;;;;;;;16.27;7.88;;;42.70;46.90;;;;;;4995937;28;20023;-77
2021/07/30 05:25:58;;;;;;;8.43;6.90;;;43.40;46.10;;;;;;4995492;28;20105;-76
2021/07/30 05:28:24;;;;;;;12.48;7.40;;;43.90;45.20;;;;;;4995424;28;20033;-77
2021/07/30 05:30:49;;;;;;;7.82;7.03;;;44.40;44.40;;;;;;4995177;28;20050;-77
2021/07/30 05:33:15;;;;;;;10.02;7.60;;;44.90;43.70;;;;;;4994685;28;20022;-75
2021/07/30 05:35:41;;;;;;;9.30;7.32;;;45.30;42.70;;;;;;4995263;28;20033;-75
2021/07/30 05:38:06;;;;;;;10.68;7.38;;;45.60;42.10;;;;;;4995040;28;20026;-75
2021/07/30 05:40:32;;;;;;;18.02;7.95;;;46.00;41.60;;;;;;4977759;28;20365;-75
2021/07/30 05:42:58;;;;;;;10.38;7.45;;;46.30;41.00;;;;;;4977453;28;20034;-75
2021/07/30 05:45:24;;;;;;;12.05;7.38;;;46.60;40.60;;;;;;4994966;28;20484;-75
2021/07/30 05:47:49;;;;;;;11.38;7.13;;;46.90;40.20;;;;;;4995195;28;20033;-76
2021/07/30 05:50:16;;;;;;;13.85;7.72;;;47.10;39.70;;;;;;4994833;28;20531;-76
2021/07/30 05:52:42;;;;;;;9.38;6.78;;;47.40;39.20;;;;;;4994692;28;20023;-75
2021/07/30 05:55:08;;;;;;;15.52;8.43;;;47.70;38.90;;;;;;4994629;28;20483;-76
2021/07/30 05:57:34;;;;;;;11.10;6.93;;;47.90;38.50;;;;;;4994959;28;20034;-75
2021/07/30 06:00:06;;;;;;;8.40;6.57;;;48.20;38.10;;;;;;4994644;28;20022;-75
2021/07/30 06:02:32;;;;;;;12.75;7.20;;;48.40;37.70;;;;;;4994767;28;20022;-75
2021/07/30 06:04:57;;;;;;;12.20;7.45;;;48.50;37.30;;;;;;4994636;28;20465;-75
2021/07/30 06:07:24;;;;;;;9.60;7.97;;;48.60;37.20;;;;;;4994327;28;20029;-75
2021/07/30 06:09:49;;;;;;;10.95;7.40;;;48.70;37.10;;;;;;4994352;28;20019;-75
2021/07/30 06:12:15;;;;;;;9.88;7.03;;;48.90;37.00;;;;;;4994651;28;20492;-76
2021/07/30 06:14:41;;;;;;;11.25;7.43;;;49.00;36.60;;;;;;4994450;28;20018;-75
2021/07/30 06:17:07;;;;;;;10.07;7.25;;;49.10;36.50;;;;;;4994309;28;20077;-75
2021/07/30 06:19:32;;;;;;;10.75;7.25;;;49.10;36.30;;;;;;4994840;28;20026;-75
2021/07/30 06:21:58;;;;;;;12.32;7.63;;;49.10;36.30;;;;;;4994832;28;20050;-78
2021/07/30 06:24:24;;;;;;;10.27;7.18;;;49.00;36.50;;;;;;4994499;28;20031;-80
2021/07/30 06:26:50;;;;;;;9.30;7.47;;;49.00;36.30;;;;;;4994169;28;20054;-78
2021/07/30 06:29:16;;;;;;;8.90;7.50;;;49.00;36.30;;;;;;4994437;28;20104;-80
2021/07/30 06:31:41;;;;;;;7.88;7.05;;;49.00;36.40;;;;;;4976665;28;20049;-75
2021/07/30 06:34:08;;;;;;;11.85;7.43;;;49.10;36.10;;;;;;4994170;28;20045;-75
2021/07/30 06:36:33;;;;;;;8.00;7.18;;;48.90;36.00;;;;;;4993942;28;20473;-75
2021/07/30 06:38:59;;;;;;;7.32;6.72;;;48.80;36.10;;;;;;4994184;28;20085;-76
2021/07/30 06:41:25;;;;;;;9.90;7.10;;;48.80;36.10;;;;;;5000016;28;20379;-75
2021/07/30 06:43:51;;;;;;;7.63;6.82;;;48.80;36.10;;;;;;5013679;28;20030;-76
2021/07/30 06:46:16;;;;;;;7.72;6.90;;;48.80;36.00;;;;;;5013619;28;20080;-75
2021/07/30 06:48:42;;;;;;;9.65;7.35;;;48.80;35.60;;;;;;5013629;28;20022;-74
2021/07/30 06:51:12;;;;;;;7.93;7.22;;;48.80;35.60;;;;;;5013411;28;20025;-75
2021/07/30 06:53:38;;;;;;;7.38;6.68;;;48.70;35.50;;;;;;5013418;28;20025;-74
2021/07/30 06:56:10;;;;;;;10.93;9.05;;;48.60;35.60;;;;;;5013494;28;20106;-75
2021/07/30 06:58:35;;;;;;;14.23;12.82;;;48.50;35.50;;;;;;5013508;28;20385;-73
2021/07/30 07:01:04;;;;;;;11.30;8.82;;;48.50;35.50;;;;;;5013451;28;20060;-75
2021/07/30 07:03:30;;;;;;;10.02;7.38;;;48.40;35.60;;;;;;5013498;28;20468;-75
2021/07/30 07:05:56;;;;;;;11.55;6.65;;;48.30;35.70;;;;;;5013430;28;20084;-73
2021/07/30 07:08:22;;;;;;;8.10;7.32;;;48.20;35.70;;;;;;5012853;28;20116;-74
2021/07/30 07:10:48;;;;;;;9.35;7.57;;;48.10;35.60;;;;;;5012239;28;20030;-74
2021/07/30 07:13:16;;;;;;;10.95;8.43;;;48.10;35.80;;;;;;5012467;28;20026;-74
2021/07/30 07:15:45;;;;;;;10.57;6.35;;;48.00;35.70;;;;;;5012422;28;20025;-74
2021/07/30 07:18:12;;;;;;;7.63;6.32;;;47.90;35.40;;;;;;5012354;28;20028;-74
2021/07/30 07:20:38;;;;;;;8.02;6.35;;;47.80;35.30;;;;;;5012297;28;20137;-74
2021/07/30 07:23:04;;;;;;;8.27;6.35;;;47.80;35.20;;;;;;5012140;28;20113;-74
2021/07/30 07:25:30;;;;;;;11.30;7.82;;;47.60;35.30;;;;;;5012255;28;20426;-73
2021/07/30 07:27:56;;;;;;;10.73;7.05;;;47.60;35.30;;;;;;4994597;28;20030;-74
2021/07/30 07:30:22;;;;;;;11.25;9.48;;;47.30;35.30;;;;;;5012177;28;20057;-74
2021/07/30 07:32:47;;;;;;;10.43;6.72;;;47.20;35.60;;;;;;5011813;28;20112;-75
2021/07/30 07:35:13;;;;;;;8.15;7.07;;;47.20;35.80;;;;;;5012570;28;20033;-74
2021/07/30 07:37:39;;;;;;;13.45;6.78;;;46.90;35.60;;;;;;5011570;28;20104;-74
2021/07/30 07:40:07;;;;;;;11.35;8.52;;;46.80;35.80;;;;;;5011801;28;20041;-74
2021/07/30 07:42:34;;;;;;;8.05;7.28;;;46.70;36.00;;;;;;5012289;28;20029;-74
2021/07/30 07:45:00;;;;;;;7.93;7.03;;;46.50;36.10;;;;;;5012249;28;20412;-75
2021/07/30 07:47:27;;;;;;;7.53;6.25;;;46.30;36.40;;;;;;5011766;28;20092;-74
2021/07/30 07:49:53;;;;;;;10.80;7.13;;;46.20;37.40;;;;;;5011990;28;20386;-73
2021/07/30 07:52:19;;;;;;;8.32;6.30;;;46.00;36.60;;;;;;5011741;28;20025;-74
2021/07/30 07:54:45;;;;;;;7.60;5.90;;;45.80;36.50;;;;;;5011779;28;20076;-73
2021/07/30 07:57:11;;;;;;;6.57;5.90;;;45.60;36.30;;;;;;5011769;28;20026;-74
2021/07/30 07:59:37;;;;;;;7.32;5.78;;;45.40;36.50;;;;;;5011701;28;20033;-74
2021/07/30 08:02:06;;;;;;;7.18;6.35;;;45.10;36.60;;;;;;5011561;28;20030;-74
2021/07/30 08:04:32;;;;;;;8.85;7.32;;;44.90;36.90;;;;;;5011676;28;20030;-74
2021/07/30 08:07:01;;;;;;;13.63;7.63;;;44.60;37.00;;;;;;5011241;28;20444;-74
2021/07/30 08:09:28;;;;;;;6.30;5.70;;;44.30;37.30;;;;;;5011457;28;20033;-75
2021/07/30 08:11:54;;;;;;;9.38;6.70;;;44.00;37.40;;;;;;5011698;28;20022;-74
2021/07/30 08:14:20;;;;;;;9.07;5.68;;;43.70;37.50;;;;;;5011675;28;20026;-74
2021/07/30 08:16:46;;;;;;;6.45;5.82;;;43.30;37.80;;;;;;4994141;28;20018;-75
2021/07/30 08:19:12;;;;;;;7.55;5.80;;;42.90;37.90;;;;;;5011239;28;20028;-75
2021/07/30 08:21:38;;;;;;;10.23;6.10;;;42.60;38.10;;;;;;5011030;28;20060;-75
2021/07/30 08:24:04;;;;;;;7.40;6.60;;;42.30;38.50;;;;;;5011110;28;20105;-73
2021/07/30 08:26:30;;;;;;;7.55;6.00;;;42.10;38.90;;;;;;5011213;28;20887;-74
2021/07/30 08:28:55;;;;;;;7.07;6.38;;;41.80;39.30;;;;;;5011475;28;20049;-75
2021/07/30 08:31:25;;;;;;;13.77;7.72;;;41.60;39.50;;;;;;4993188;28;20441;-74
2021/07/30 08:33:52;;;;;;;9.38;5.95;;;41.40;39.70;;;;;;5011265;28;20026;-76
2021/07/30 08:36:18;;;;;;;9.60;6.50;;;41.20;40.20;;;;;;5011389;28;20359;-74
2021/07/30 08:38:43;;;;;;;9.82;6.40;;;41.10;40.40;;;;;;5011100;28;20101;-75
2021/07/30 08:41:09;;;;;;;7.10;6.40;;;40.80;40.60;;;;;;5010602;28;20395;-75
2021/07/30 08:43:35;;;;;;;7.57;6.40;;;40.70;41.10;;;;;;5011181;28;20030;-75
2021/07/30 08:46:01;;;;;;;11.70;6.30;;;40.60;41.30;;;;;;5010985;28;20041;-75
2021/07/30 08:48:33;;;;;;;10.70;7.18;;;40.50;41.70;;;;;;5011194;28;20033;-75
2021/07/30 08:51:02;;;;;;;8.27;6.55;;;40.30;41.90;;;;;;5010967;28;20444;-74
2021/07/30 08:53:27;;;;;;;10.02;6.60;;;40.30;41.80;;;;;;5010775;28;20053;-74
2021/07/30 08:55:54;;;;;;;7.50;6.57;;;40.20;42.00;;;;;;5010888;28;20062;-75
2021/07/30 08:58:20;;;;;;;7.47;6.78;;;40.00;41.90;;;;;;5011073;28;20049;-76
2021/07/30 09:00:46;;;;;;;23.02;7.18;;;39.80;42.10;;;;;;5010590;28;20038;-74
2021/07/30 09:03:12;;;;;;;8.40;7.60;;;39.50;42.20;;;;;;5010665;28;20018;-75
2021/07/30 09:05:38;;;;;;;6.53;6.00;;;39.30;42.50;;;;;;5010554;28;20036;-74
2021/07/30 09:08:06;;;;;;;10.48;6.00;;;39.20;42.80;;;;;;5011073;28;20037;-75
2021/07/30 09:10:40;;;;;;;8.38;7.45;;;39.20;42.80;;;;;;5010282;28;20065;-75
2021/07/30 09:13:17;;;;;;;13.88;7.10;;;39.10;42.90;;;;;;5010340;28;20026;-75
2021/07/30 09:15:44;;;;;;;7.00;6.40;;;38.70;42.80;;;;;;5010615;28;20022;-75
2021/07/30 09:18:27;;;;;;;8.38;7.50;;;38.40;43.20;;;;;;5010482;28;20569;-75
2021/07/30 09:20:53;;;;;;;10.70;7.50;;;38.20;43.90;;;;;;5010810;28;20030;-74
2021/07/30 09:23:19;;;;;;;7.97;7.13;;;38.20;44.20;;;;;;5010557;28;20044;-76
2021/07/30 09:25:45;;;;;;;8.35;6.68;;;38.10;44.20;;;;;;5011167;28;20084;-75
2021/07/30 09:28:11;;;;;;;10.60;7.18;;;37.90;44.30;;;;;;5011047;28;20088;-75
2021/07/30 09:30:37;;;;;;;7.75;6.97;;;37.80;44.10;;;;;;5010479;28;20045;-74
2021/07/30 09:33:03;;;;;;;7.78;6.97;;;37.70;44.00;;;;;;5010055;28;20026;-72
2021/07/30 09:35:29;;;;;;;9.93;6.90;;;37.60;44.40;;;;;;5010590;28;20026;-71
2021/07/30 09:38:16;;;;;;;7.35;6.32;;;37.40;44.30;;;;;;5010114;28;20081;-72
2021/07/30 09:40:42;;;;;;;13.93;7.05;;;37.40;44.80;;;;;;5010357;28;20100;-71
2021/07/30 09:43:24;;;;;;;7.50;6.72;;;37.50;44.40;;;;;;5010337;28;20022;-72
2021/07/30 09:46:08;;;;;;;7.18;6.50;;;37.50;43.90;;;;;;5010411;28;20080;-71
2021/07/30 09:48:53;;;;;;;9.00;6.38;;;37.40;43.50;;;;;;5010444;28;20464;-71
2021/07/30 09:51:19;;;;;;;6.95;6.35;;;37.40;43.40;;;;;;5010314;28;20041;-71
2021/07/30 09:53:46;;;;;;;9.10;6.45;;;37.30;43.10;;;;;;5010241;28;20026;-72
2021/07/30 09:56:16;;;;;;;9.05;6.78;;;37.30;43.20;;;;;;5010434;28;20026;-71
2021/07/30 09:58:45;;;;;;;11.18;6.03;;;37.30;43.20;;;;;;5010163;28;20089;-70
2021/07/30 10:01:17;;;;;;;9.13;6.88;;;37.30;43.30;;;;;;5011439;28;20371;-71
2021/07/30 10:03:46;;;;;;;7.15;6.55;;;37.30;43.40;;;;;;5013652;28;20034;-71
2021/07/30 10:06:15;;;;;;;11.77;8.35;;;37.20;43.40;;;;;;5013738;28;20058;-73
2021/07/30 10:08:44;;;;;;;8.02;6.00;;;37.20;43.40;;;;;;5013454;28;20026;-72
2021/07/30 10:11:11;;;;;;;7.22;6.40;;;37.10;43.10;;;;;;5013241;28;20026;-71
2021/07/30 10:13:50;;;;;;;14.13;12.70;;;37.00;43.20;;;;;;5013368;28;20030;-72
2021/07/30 10:16:17;;;;;;;9.45;7.05;;;37.00;43.30;;;;;;5013619;28;20040;-72
2021/07/30 10:18:44;;;;;;;10.05;6.38;;;36.80;43.20;;;;;;5013454;28;20531;-71
2021/07/30 10:21:15;;;;;;;6.47;5.88;;;36.60;43.50;;;;;;5013792;28;20022;-71
2021/07/30 10:23:43;;;;;;;7.65;6.40;;;36.50;43.50;;;;;;5013138;28;20395;-71
2021/07/30 10:26:09;;;;;;;7.90;6.78;;;36.30;43.80;;;;;;5013408;28;20026;-72
2021/07/30 10:28:36;;;;;;;11.82;7.30;;;36.00;44.10;;;;;;5013068;28;20074;-71
2021/07/30 10:31:07;;;;;;;10.75;7.25;;;35.80;44.60;;;;;;5013184;28;20046;-71
2021/07/30 10:33:38;;;;;;;7.63;6.93;;;35.70;45.10;;;;;;5013766;28;20105;-71
2021/07/30 10:36:15;;;;;;;10.95;7.72;;;35.80;45.30;;;;;;5013341;28;20093;-72
2021/07/30 10:38:41;;;;;;;8.98;6.78;;;35.70;45.90;;;;;;5012898;28;20099;-71
2021/07/30 10:41:07;;;;;;;9.00;6.95;;;35.80;46.20;;;;;;5013324;28;20034;-72
2021/07/30 10:43:51;;;;;;;10.52;6.93;;;35.80;46.30;;;;;;5013172;28;20365;-72
2021/07/30 10:46:18;;;;;;;11.20;7.38;;;35.80;45.90;;;;;;5013233;28;20646;-71
2021/07/30 10:48:44;;;;;;;9.00;7.00;;;35.90;46.00;;;;;;5012925;28;20026;-71
2021/07/30 10:51:25;;;;;;;7.60;6.78;;;35.90;46.00;;;;;;4994875;28;20345;-71
2021/07/30 10:54:04;;;;;;;13.50;8.15;;;35.80;45.70;;;;;;5012860;28;20472;-73
2021/07/30 10:56:30;;;;;;;8.95;6.85;;;35.90;45.50;;;;;;5013213;28;20030;-72
2021/07/30 10:58:56;;;;;;;10.45;7.38;;;35.80;45.90;;;;;;5013170;28;20383;-71
2021/07/30 11:01:29;;;;;;;8.50;7.10;;;35.80;46.00;;;;;;5012947;28;20034;-71
2021/07/30 11:03:56;;;;;;;9.95;7.43;;;35.70;45.70;;;;;;5012840;28;20033;-72
2021/07/30 11:06:26;;;;;;;10.20;7.10;;;35.60;45.90;;;;;;5012830;28;20485;-72
2021/07/30 11:09:03;;;;;;;8.30;7.50;;;35.50;46.20;;;;;;5014015;28;20570;-77
2021/07/30 11:11:51;;;;;;;9.27;7.30;;;35.50;46.50;;;;;;5013850;28;20041;-76
2021/07/30 11:14:27;;;;;;;19.08;12.63;;;35.40;46.10;;;;;;5012939;28;20096;-75
2021/07/30 11:17:00;;;;;;;10.70;7.95;;;35.40;46.50;;;;;;5013938;28;20024;-77
2021/07/30 11:19:35;;;;;;;10.40;6.85;;;35.40;46.30;;;;;;5013731;28;20022;-76
2021/07/30 11:22:03;;;;;;;10.93;7.07;;;35.20;45.60;;;;;;5013490;28;20091;-75
2021/07/30 11:24:29;;;;;;;15.48;8.52;;;35.00;45.70;;;;;;5013290;28;20050;-76
2021/07/30 11:26:55;;;;;;;9.57;7.00;;;34.80;46.10;;;;;;5013020;28;20420;-76
2021/07/30 11:29:22;;;;;;;11.18;7.40;;;34.70;46.40;;;;;;5012961;28;20041;-74
2021/07/30 11:31:52;;;;;;;12.27;8.32;;;34.50;46.60;;;;;;5012714;28;20042;-76
2021/07/30 11:34:24;;;;;;;12.68;9.55;;;34.50;46.90;;;;;;4995303;28;20022;-76
2021/07/30 11:36:50;;;;;;;9.88;8.63;;;34.60;47.10;;;;;;5012746;28;20022;-76
2021/07/30 11:39:17;;;;;;;15.88;10.57;;;34.60;46.90;;;;;;5012754;28;20460;-75
2021/07/30 11:42:38;;;;;;;;;;;;;;;;;;;;;
2021/07/30 11:48:27;;;;;;;9.77;8.10;;;33.90;48.00;;;;;;4958212;28;20037;-75
2021/07/30 11:50:58;;;;;;;15.63;8.15;;;33.80;48.20;;;;;;4994406;28;20030;-73
2021/07/30 11:53:24;;;;;;;8.68;7.88;;;33.80;48.30;;;;;;5012247;28;20028;-74
2021/07/30 11:55:56;;;;;;;9.10;7.90;;;33.90;48.30;;;;;;5012125;28;20172;-73
2021/07/30 11:58:21;;;;;;;9.52;7.38;;;34.00;48.30;;;;;;5012371;28;20026;-74
2021/07/30 12:00:47;;;;;;;10.57;8.30;;;34.00;48.40;;;;;;5012362;28;20404;-74
2021/07/30 12:03:18;;;;;;;8.00;7.00;;;34.10;48.20;;;;;;5012160;28;20109;-72
2021/07/30 12:05:44;;;;;;;11.13;7.80;;;34.10;47.90;;;;;;5012320;28;20030;-73
2021/07/30 12:08:10;;;;;;;13.75;7.80;;;34.10;47.90;;;;;;5011795;28;20403;-72
2021/07/30 12:10:37;;;;;;;8.25;6.95;;;34.10;48.00;;;;;;5011767;28;20029;-72
2021/07/30 12:13:03;;;;;;;11.05;7.03;;;34.00;47.40;;;;;;5012096;28;20461;-72
2021/07/30 12:15:30;;;;;;;9.57;7.13;;;33.90;47.40;;;;;;5011935;28;20357;-71
2021/07/30 12:18:03;;;;;;;11.02;7.07;;;33.70;47.50;;;;;;4994264;28;20037;-72
2021/07/30 12:20:33;;;;;;;10.23;7.40;;;33.60;47.80;;;;;;5011510;28;20079;-71
2021/07/30 12:23:04;;;;;;;10.70;7.07;;;33.40;48.10;;;;;;5011716;28;20026;-72
2021/07/30 12:25:42;;;;;;;9.10;7.22;;;33.30;48.10;;;;;;5011519;28;20029;-72
2021/07/30 12:28:13;;;;;;;11.27;7.82;;;33.30;48.20;;;;;;5011890;28;20030;-76
2021/07/30 12:30:40;;;;;;;9.00;7.07;;;33.30;48.30;;;;;;5011403;28;20033;-71
2021/07/30 12:33:24;;;;;;;16.05;9.35;;;33.30;48.40;;;;;;5011702;28;20033;-71
2021/07/30 12:36:02;;;;;;;9.65;7.70;;;33.30;48.20;;;;;;5010990;28;20101;-71
2021/07/30 12:38:28;;;;;;;17.83;10.98;;;33.20;48.30;;;;;;5011030;28;20029;-70
2021/07/30 12:41:15;;;;;;;19.10;11.25;;;33.20;48.40;;;;;;5010612;28;20026;-71
2021/07/30 12:43:44;;;;;;;13.80;10.48;;;33.10;48.50;;;;;;5011159;28;20088;-72
2021/07/30 12:46:29;;;;;;;12.23;9.98;;;33.20;48.50;;;;;;5010888;28;20447;-72
2021/07/30 12:48:55;;;;;;;14.43;8.68;;;33.20;48.20;;;;;;5011025;28;20843;-70
2021/07/30 12:51:25;;;;;;;9.40;8.27;;;33.20;48.00;;;;;;5011055;28;20069;-71